createdAt,value
2019-03-16T00:02:04.700Z,63.72
2019-03-16T00:04:33.053Z,63.57
2019-03-16T00:07:01.197Z,64.41
2019-03-16T00:09:29.435Z,64.56
2019-03-16T00:11:57.811Z,63.75
2019-03-16T00:14:26.460Z,64.95
2019-03-16T00:16:54.706Z,64.95
2019-03-16T00:19:23.056Z,64.69
2019-03-16T00:21:51.380Z,64.11
2019-03-16T00:24:19.647Z,64.90
2019-03-16T00:26:47.988Z,64.72
2019-03-16T00:29:16.356Z,65.36
2019-03-16T00:31:44.801Z,64.43
2019-03-16T00:34:13.131Z,64.62
2019-03-16T00:36:41.328Z,64.62
2019-03-16T00:39:10.518Z,64.64
2019-03-16T00:41:39.312Z,64.67
2019-03-16T00:44:07.566Z,65.17
2019-03-16T00:46:35.771Z,64.84
2019-03-16T00:49:04.063Z,65.20
2019-03-16T00:51:32.443Z,64.75
2019-03-16T00:54:00.645Z,64.42
2019-03-16T00:56:29.222Z,65.06
2019-03-16T00:58:57.665Z,64.07
2019-03-16T01:01:25.941Z,64.70
2019-03-16T01:03:54.165Z,64.24
2019-03-16T01:06:23.216Z,65.61
2019-03-16T01:08:51.407Z,64.35
2019-03-16T01:11:19.563Z,66.21
2019-03-16T01:13:47.775Z,66.19
2019-03-16T01:16:16.065Z,64.31
2019-03-16T01:18:44.248Z,64.35
2019-03-16T01:21:12.502Z,64.73
2019-03-16T01:23:42.871Z,64.53
2019-03-16T01:26:10.685Z,65.08
2019-03-16T01:28:38.817Z,64.18
2019-03-16T01:31:06.978Z,65.45
2019-03-16T01:33:35.193Z,64.72
2019-03-16T01:36:03.413Z,65.69
2019-03-16T01:38:31.573Z,63.83
2019-03-16T01:40:59.690Z,64.51
2019-03-16T01:43:27.907Z,64.63
2019-03-16T01:45:56.181Z,65.37
2019-03-16T01:48:24.384Z,64.98
2019-03-16T01:50:52.780Z,64.97
2019-03-16T01:53:21.041Z,65.71
2019-03-16T01:55:49.329Z,64.24
2019-03-16T01:58:17.445Z,64.32
2019-03-16T02:00:45.659Z,65.03
2019-03-16T02:03:13.895Z,64.08
2019-03-16T02:05:42.477Z,63.88
2019-03-16T02:08:11.261Z,64.88
2019-03-16T02:10:39.391Z,65.31
2019-03-16T02:13:07.779Z,64.41
2019-03-16T02:15:36.009Z,64.22
2019-03-16T02:18:04.347Z,63.85
2019-03-16T02:20:32.647Z,64.23
2019-03-16T02:23:00.887Z,63.08
2019-03-16T02:25:29.096Z,63.67
2019-03-16T02:27:57.219Z,65.86
2019-03-16T02:30:25.387Z,63.17
2019-03-16T02:33:11.172Z,64.38
2019-03-16T02:35:23.648Z,62.67
2019-03-16T02:37:51.969Z,64.08
2019-03-16T02:40:20.186Z,63.72
2019-03-16T02:42:48.326Z,62.60
2019-03-16T02:45:16.476Z,63.90
2019-03-16T02:47:44.838Z,62.84
2019-03-16T02:50:13.274Z,63.10
2019-03-16T02:52:41.592Z,63.94
2019-03-16T02:55:09.986Z,63.68
2019-03-16T02:57:38.152Z,66.35
2019-03-16T03:00:07.837Z,64.02
2019-03-16T03:02:36.046Z,63.26
2019-03-16T03:05:04.255Z,63.68
2019-03-16T03:07:32.621Z,64.80
2019-03-16T03:10:01.094Z,63.45
2019-03-16T03:12:29.169Z,65.60
2019-03-16T03:14:57.714Z,65.93
2019-03-16T03:17:25.873Z,65.19
2019-03-16T03:19:54.352Z,64.46
2019-03-16T03:22:22.491Z,65.08
2019-03-16T03:24:50.873Z,64.77
2019-03-16T03:27:19.274Z,65.81
2019-03-16T03:29:47.625Z,64.20
2019-03-16T03:32:15.764Z,64.34
2019-03-16T03:34:44.466Z,65.88
2019-03-16T03:37:12.947Z,63.93
2019-03-16T03:39:41.132Z,65.16
2019-03-16T03:42:09.478Z,64.50
2019-03-16T03:44:37.662Z,64.87
2019-03-16T03:47:05.922Z,64.10
2019-03-16T03:49:34.170Z,64.58
2019-03-16T03:52:02.600Z,64.79
2019-03-16T03:54:30.993Z,64.83
2019-03-16T03:56:59.129Z,64.10
2019-03-16T03:59:27.682Z,64.53
2019-03-16T04:01:55.884Z,65.73
2019-03-16T04:04:24.387Z,63.81
2019-03-16T04:06:52.713Z,64.34
2019-03-16T04:09:21.030Z,64.87
2019-03-16T04:11:49.571Z,64.47
2019-03-16T04:14:17.743Z,65.35
2019-03-16T04:16:46.030Z,66.03
2019-03-16T04:19:14.330Z,63.69
2019-03-16T04:21:42.467Z,64.12
2019-03-16T04:24:11.069Z,64.91
2019-03-16T04:26:39.249Z,64.61
2019-03-16T04:29:07.525Z,65.11
2019-03-16T04:31:36.044Z,64.86
2019-03-16T04:34:04.289Z,65.58
2019-03-16T04:36:32.575Z,65.98
2019-03-16T04:39:00.818Z,65.16
2019-03-16T04:41:28.931Z,65.41
2019-03-16T04:43:57.069Z,66.82
2019-03-16T04:46:25.253Z,66.31
2019-03-16T04:48:53.590Z,65.57
2019-03-16T04:51:21.867Z,64.94
2019-03-16T04:53:50.409Z,65.02
2019-03-16T04:56:18.690Z,65.94
2019-03-16T04:58:46.977Z,65.66
2019-03-16T05:01:15.133Z,66.20
2019-03-16T05:03:43.394Z,65.99
2019-03-16T05:06:11.503Z,65.96
2019-03-16T05:08:39.958Z,66.79
2019-03-16T05:11:08.134Z,65.55
2019-03-16T05:13:36.563Z,65.99
2019-03-16T05:16:04.772Z,66.36
2019-03-16T05:18:33.146Z,66.06
2019-03-16T05:21:01.432Z,66.88
2019-03-16T05:23:29.618Z,64.63
2019-03-16T05:25:57.786Z,66.45
2019-03-16T05:28:25.926Z,62.24
2019-03-16T05:30:54.040Z,62.73
2019-03-16T05:33:22.203Z,65.47
2019-03-16T05:35:50.304Z,62.67
2019-03-16T05:38:18.618Z,63.52
2019-03-16T05:40:46.719Z,64.58
2019-03-16T05:43:14.945Z,64.37
2019-03-16T05:45:43.223Z,65.87
2019-03-16T05:48:11.521Z,65.61
2019-03-16T05:50:39.743Z,66.67
2019-03-16T05:53:07.993Z,67.17
2019-03-16T05:55:36.201Z,67.83
2019-03-16T05:58:04.357Z,67.46
2019-03-16T06:00:32.536Z,69.01
2019-03-16T06:03:00.801Z,71.26
2019-03-16T06:05:29.296Z,71.17
2019-03-16T06:07:57.591Z,71.54
2019-03-16T06:10:25.935Z,71.35
2019-03-16T06:12:54.028Z,72.55
2019-03-16T06:15:22.172Z,72.90
2019-03-16T06:17:50.372Z,73.76
2019-03-16T06:20:18.529Z,72.54
2019-03-16T06:22:46.717Z,73.82
2019-03-16T06:25:14.907Z,73.46
2019-03-16T06:27:43.160Z,74.79
2019-03-16T06:30:11.560Z,74.66
2019-03-16T06:32:39.788Z,75.00
2019-03-16T06:35:08.146Z,74.29
2019-03-16T06:37:36.382Z,75.14
2019-03-16T06:40:04.670Z,74.93
2019-03-16T06:42:32.930Z,72.95
2019-03-16T06:45:01.237Z,75.31
2019-03-16T06:47:29.456Z,75.17
2019-03-16T06:49:57.816Z,76.37
2019-03-16T06:52:26.036Z,77.66
2019-03-16T06:54:54.189Z,76.99
2019-03-16T06:57:22.407Z,73.72
2019-03-16T06:59:50.855Z,74.98
2019-03-16T07:02:19.103Z,76.52
2019-03-16T07:04:47.352Z,77.62
2019-03-16T07:07:15.604Z,75.32
2019-03-16T07:09:43.803Z,77.22
2019-03-16T07:12:12.033Z,76.85
2019-03-16T07:14:40.374Z,72.09
2019-03-16T07:17:08.754Z,73.10
2019-03-16T07:19:37.028Z,73.75
2019-03-16T07:22:05.283Z,76.13
2019-03-16T07:24:33.609Z,72.87
2019-03-16T07:27:01.851Z,74.85
2019-03-16T07:29:30.147Z,77.12
2019-03-16T07:31:58.424Z,74.48
2019-03-16T07:34:26.685Z,71.91
2019-03-16T07:36:55.104Z,71.91
2019-03-16T07:39:23.454Z,74.71
2019-03-16T07:41:51.640Z,72.68
2019-03-16T07:44:20.116Z,69.21
2019-03-16T07:46:48.316Z,70.18
2019-03-16T07:49:16.562Z,69.19
2019-03-16T07:51:44.764Z,71.69
2019-03-16T07:54:13.035Z,71.13
2019-03-16T07:56:41.322Z,69.81
2019-03-16T07:59:09.894Z,70.19
2019-03-16T08:01:38.124Z,70.53
2019-03-16T08:04:06.467Z,74.17
2019-03-16T08:06:34.924Z,75.82
2019-03-16T08:09:03.304Z,72.40
2019-03-16T08:11:31.458Z,73.56
2019-03-16T08:13:59.711Z,69.61
2019-03-16T08:16:29.069Z,74.15
2019-03-16T08:18:57.318Z,73.44
2019-03-16T08:21:25.629Z,70.30
2019-03-16T08:23:53.969Z,72.25
2019-03-16T08:26:22.309Z,69.71
2019-03-16T08:28:50.489Z,69.02
2019-03-16T08:31:18.980Z,69.23
2019-03-16T08:33:47.253Z,72.65
2019-03-16T08:36:15.575Z,70.25
2019-03-16T08:38:43.903Z,71.56
2019-03-16T08:41:12.137Z,69.96
2019-03-16T08:43:40.511Z,70.54
2019-03-16T08:46:08.824Z,72.95
2019-03-16T08:48:37.126Z,72.79
2019-03-16T08:51:05.557Z,72.29
2019-03-16T08:53:33.768Z,72.87
2019-03-16T08:56:01.998Z,71.80
2019-03-16T08:58:30.298Z,72.95
2019-03-16T09:00:58.902Z,70.84
2019-03-16T09:03:27.185Z,73.09
2019-03-16T09:05:55.552Z,74.40
2019-03-16T09:08:23.969Z,73.76
2019-03-16T09:10:52.459Z,74.13
2019-03-16T09:13:20.744Z,72.20
2019-03-16T09:15:49.050Z,74.97
2019-03-16T09:18:17.264Z,71.72
2019-03-16T09:20:45.474Z,74.80
2019-03-16T09:23:13.799Z,71.63
2019-03-16T09:25:42.151Z,72.64
2019-03-16T09:28:18.552Z,74.55
2019-03-16T09:30:40.713Z,76.75
2019-03-16T09:33:09.086Z,75.71
2019-03-16T09:35:37.427Z,75.43
2019-03-16T09:38:05.642Z,74.60
2019-03-16T09:40:33.899Z,74.99
2019-03-16T09:43:02.217Z,75.92
2019-03-16T09:45:30.651Z,76.12
2019-03-16T09:47:58.975Z,73.58
2019-03-16T09:50:27.452Z,74.60
2019-03-16T09:52:55.752Z,77.43
2019-03-16T09:55:24.105Z,76.87
2019-03-16T09:57:52.505Z,72.83
2019-03-16T10:00:20.989Z,74.71
2019-03-16T10:02:49.157Z,76.27
2019-03-16T10:05:17.832Z,78.18
2019-03-16T10:07:46.335Z,76.39
2019-03-16T10:10:14.923Z,77.56
2019-03-16T10:12:43.148Z,74.92
2019-03-16T10:15:11.521Z,77.32
2019-03-16T10:17:39.786Z,75.66
2019-03-16T10:20:08.089Z,73.28
2019-03-16T10:22:36.444Z,72.40
2019-03-16T10:25:04.855Z,75.62
2019-03-16T10:27:33.092Z,72.12
2019-03-16T10:30:01.775Z,75.30
2019-03-16T10:32:35.730Z,77.84
2019-03-16T10:35:05.177Z,78.51
2019-03-16T10:37:34.199Z,77.82
2019-03-16T10:40:02.355Z,76.07
2019-03-16T10:42:30.632Z,74.46
2019-03-16T10:44:59.196Z,74.92
2019-03-16T10:47:27.517Z,74.33
2019-03-16T10:49:55.850Z,79.13
2019-03-16T10:52:24.137Z,78.58
2019-03-16T10:54:52.625Z,78.41
2019-03-16T10:57:20.854Z,79.98
2019-03-16T10:59:49.121Z,77.41
2019-03-16T11:02:17.385Z,78.40
2019-03-16T11:04:45.639Z,75.37
2019-03-16T11:07:14.065Z,78.01
2019-03-16T11:09:42.407Z,76.69
2019-03-16T11:12:10.597Z,78.30
2019-03-16T11:14:41.070Z,78.60
2019-03-16T11:17:08.929Z,75.84
2019-03-16T11:19:37.337Z,73.64
2019-03-16T11:22:05.762Z,78.13
2019-03-16T11:24:34.241Z,77.54
2019-03-16T11:27:02.587Z,77.70
2019-03-16T11:29:30.947Z,78.20
2019-03-16T11:31:59.576Z,77.64
2019-03-16T11:34:27.829Z,73.84
2019-03-16T11:36:56.550Z,73.39
2019-03-16T11:39:24.991Z,74.86
2019-03-16T11:41:53.388Z,75.56
2019-03-16T11:44:21.580Z,75.15
2019-03-16T11:46:49.836Z,75.90
2019-03-16T11:49:18.366Z,75.97
2019-03-16T11:51:46.676Z,75.81
2019-03-16T11:54:15.002Z,74.93
2019-03-16T11:56:43.343Z,74.56
2019-03-16T11:59:20.992Z,75.98
2019-03-16T12:01:41.690Z,75.94
2019-03-16T12:04:09.941Z,75.21
2019-03-16T12:06:38.199Z,76.50
2019-03-16T12:09:08.159Z,75.41
2019-03-16T12:11:36.637Z,76.57
2019-03-16T12:14:04.962Z,77.16
2019-03-16T12:16:33.341Z,75.39
2019-03-16T12:19:01.697Z,74.33
2019-03-16T12:21:30.012Z,75.43
2019-03-16T12:23:58.257Z,74.68
2019-03-16T12:26:26.640Z,75.02
2019-03-16T12:28:55.106Z,76.08
2019-03-16T12:31:23.417Z,75.30
2019-03-16T12:33:51.879Z,74.35
2019-03-16T12:36:20.268Z,75.59
2019-03-16T12:38:49.267Z,74.17
2019-03-16T12:41:20.684Z,74.66
2019-03-16T12:43:49.408Z,75.31
2019-03-16T12:46:18.984Z,75.52
2019-03-16T12:48:47.536Z,74.23
2019-03-16T12:51:16.171Z,74.42
2019-03-16T12:53:45.141Z,73.27
2019-03-16T12:56:13.796Z,74.01
2019-03-16T13:01:37.299Z,72.93
2019-03-16T13:04:05.887Z,73.60
2019-03-16T13:06:35.003Z,73.55
2019-03-16T13:09:04.901Z,72.62
2019-03-16T13:11:33.255Z,73.13
2019-03-16T13:14:01.710Z,72.31
2019-03-16T13:16:30.018Z,72.67
2019-03-16T13:18:58.167Z,72.56
2019-03-16T13:21:26.468Z,73.04
2019-03-16T13:23:54.778Z,72.60
2019-03-16T13:26:23.213Z,71.91
2019-03-16T13:28:51.616Z,72.15
2019-03-16T13:31:20.093Z,71.14
2019-03-16T13:33:48.317Z,71.32
2019-03-16T13:36:17.163Z,71.64
2019-03-16T13:38:45.450Z,70.76
2019-03-16T13:41:14.123Z,70.90
2019-03-16T13:43:42.531Z,71.63
2019-03-16T13:46:11.111Z,72.22
2019-03-16T13:48:39.417Z,71.32
2019-03-16T13:51:08.439Z,71.47
2019-03-16T13:53:37.033Z,70.77
2019-03-16T13:56:06.257Z,70.53
2019-03-16T13:58:34.814Z,69.75
2019-03-16T14:01:03.044Z,69.61
2019-03-16T14:03:31.402Z,70.73
2019-03-16T14:06:00.231Z,69.80
2019-03-16T14:08:29.326Z,70.38
2019-03-16T14:10:58.626Z,70.75
2019-03-16T14:13:27.496Z,69.52
2019-03-16T14:15:56.543Z,70.07
2019-03-16T14:18:24.922Z,70.56
2019-03-16T14:20:53.733Z,70.00
2019-03-16T14:23:22.530Z,69.78
2019-03-16T14:25:51.268Z,70.49
2019-03-16T14:28:20.047Z,70.32
2019-03-16T14:30:48.895Z,70.49
2019-03-16T14:33:18.290Z,69.89
2019-03-16T14:35:46.800Z,69.03
2019-03-16T14:38:15.363Z,68.83
2019-03-16T14:40:44.552Z,68.45
2019-03-16T14:43:13.391Z,69.34
2019-03-16T14:45:41.681Z,68.62
2019-03-16T14:48:10.232Z,69.40
2019-03-16T14:50:39.799Z,68.45
2019-03-16T14:53:08.323Z,68.06
2019-03-16T14:55:36.833Z,68.90
2019-03-16T14:58:05.573Z,69.28
2019-03-16T15:00:38.654Z,68.54
2019-03-16T15:03:04.993Z,69.14
2019-03-16T15:05:33.433Z,69.73
2019-03-16T15:08:02.341Z,69.02
2019-03-16T15:10:31.419Z,68.88
2019-03-16T15:12:59.957Z,68.73
2019-03-16T15:15:28.708Z,69.71
2019-03-16T15:17:57.531Z,69.90
2019-03-16T15:20:26.153Z,68.29
2019-03-16T15:22:58.891Z,67.98
2019-03-16T15:25:27.500Z,69.35
2019-03-16T15:27:56.036Z,69.36
2019-03-16T15:30:24.483Z,68.83
2019-03-16T15:32:53.079Z,68.51
2019-03-16T15:35:21.906Z,68.22
2019-03-16T15:37:50.512Z,68.08
2019-03-16T15:40:18.975Z,68.33
2019-03-16T15:42:47.550Z,67.21
2019-03-16T15:45:17.573Z,68.88
2019-03-16T15:47:46.325Z,67.51
2019-03-16T15:50:14.770Z,67.84
2019-03-16T15:52:43.567Z,67.12
2019-03-16T15:55:12.044Z,66.90
2019-03-16T15:57:42.501Z,65.85
2019-03-16T16:00:11.840Z,67.42
2019-03-16T16:02:40.144Z,65.82
2019-03-16T16:05:08.809Z,66.01
2019-03-16T16:07:38.474Z,66.93
2019-03-16T16:10:07.632Z,67.88
2019-03-16T16:12:36.550Z,66.29
2019-03-16T16:15:05.991Z,66.33
2019-03-16T16:17:34.742Z,67.43
2019-03-16T16:20:03.441Z,67.96
2019-03-16T16:22:32.174Z,67.26
2019-03-16T16:25:00.567Z,66.48
2019-03-16T16:27:28.911Z,66.50
2019-03-16T16:29:57.613Z,68.05
2019-03-16T16:32:26.075Z,67.24
2019-03-16T16:34:54.620Z,67.50
2019-03-16T16:37:23.530Z,67.46
2019-03-16T16:39:59.418Z,67.97
2019-03-16T16:42:28.200Z,68.10
2019-03-16T16:44:57.141Z,65.72
2019-03-16T16:47:26.291Z,66.50
2019-03-16T16:49:54.748Z,67.05
2019-03-16T16:52:24.034Z,68.13
2019-03-16T16:54:52.306Z,66.06
2019-03-16T16:57:20.828Z,68.43
2019-03-16T16:59:49.612Z,67.86
2019-03-16T17:02:18.332Z,65.13
2019-03-16T17:04:46.646Z,67.42
2019-03-16T17:07:15.282Z,65.30
2019-03-16T17:09:43.995Z,66.11
2019-03-16T17:12:12.813Z,64.65
2019-03-16T17:15:00.886Z,66.22
2019-03-16T17:17:35.079Z,65.29
2019-03-16T17:20:01.311Z,65.39
2019-03-16T17:22:30.392Z,65.34
2019-03-16T17:24:58.939Z,64.70
2019-03-16T17:27:27.688Z,64.88
2019-03-16T17:29:57.114Z,65.38
2019-03-16T17:32:25.984Z,66.56
2019-03-16T17:34:54.379Z,65.33
2019-03-16T17:37:22.845Z,66.69
2019-03-16T17:39:53.796Z,64.25
2019-03-16T17:42:22.789Z,65.28
2019-03-16T17:44:52.114Z,65.12
2019-03-16T17:47:21.076Z,65.42
2019-03-16T17:49:51.167Z,64.67
2019-03-16T17:52:20.398Z,65.52
2019-03-16T17:54:49.165Z,63.95
2019-03-16T17:57:17.716Z,65.12
2019-03-16T17:59:46.354Z,63.83
2019-03-16T18:02:17.833Z,64.67
2019-03-16T18:04:47.150Z,63.82
2019-03-16T18:07:16.276Z,64.69
2019-03-16T18:09:46.304Z,64.59
2019-03-16T18:12:15.358Z,62.03
2019-03-16T18:14:43.808Z,64.95
2019-03-16T18:17:12.256Z,63.98
2019-03-16T18:19:40.916Z,62.77
2019-03-16T18:22:09.389Z,64.33
2019-03-16T18:24:38.017Z,62.70
2019-03-16T18:27:07.421Z,63.70
2019-03-16T18:29:36.102Z,62.08
2019-03-16T18:32:08.171Z,63.73
2019-03-16T18:34:35.255Z,64.09
2019-03-16T18:37:03.645Z,63.66
2019-03-16T18:39:32.306Z,65.16
2019-03-16T18:42:03.738Z,65.21
2019-03-16T18:44:32.370Z,63.79
2019-03-16T18:47:01.163Z,62.67
2019-03-16T18:49:30.403Z,64.33
2019-03-16T18:51:59.455Z,66.36
2019-03-16T18:54:28.157Z,65.37
2019-03-16T18:56:57.475Z,63.14
2019-03-16T18:59:26.307Z,62.92
2019-03-16T19:01:55.392Z,63.35
2019-03-16T19:04:23.964Z,61.50
2019-03-16T19:06:52.945Z,63.25
2019-03-16T19:09:21.932Z,62.55
2019-03-16T19:11:50.658Z,62.24
2019-03-16T19:14:19.221Z,62.43
2019-03-16T19:16:48.412Z,63.29
2019-03-16T19:19:18.397Z,64.22
2019-03-16T19:21:47.480Z,62.05
2019-03-16T19:24:16.971Z,61.28
2019-03-16T19:26:45.840Z,62.42
2019-03-16T19:29:15.827Z,60.91
2019-03-16T19:31:45.730Z,62.31
2019-03-16T19:34:14.636Z,65.51
2019-03-16T19:36:44.144Z,61.31
2019-03-16T19:39:13.370Z,60.87
2019-03-16T19:41:42.390Z,61.56
2019-03-16T19:44:11.991Z,63.24
2019-03-16T19:46:41.367Z,61.30
2019-03-16T19:49:10.672Z,62.11
2019-03-16T19:51:39.602Z,61.53
2019-03-16T19:54:08.663Z,63.01
2019-03-16T19:56:37.742Z,63.46
2019-03-16T19:59:06.669Z,61.96
2019-03-16T20:01:37.651Z,61.09
2019-03-16T20:04:07.206Z,62.39
2019-03-16T20:06:36.748Z,63.82
2019-03-16T20:09:07.908Z,61.93
2019-03-16T20:11:38.193Z,63.02
2019-03-16T20:14:06.984Z,62.26
2019-03-16T20:16:36.269Z,61.46
2019-03-16T20:19:05.227Z,60.88
2019-03-16T20:21:34.617Z,64.30
2019-03-16T20:24:03.664Z,60.63
2019-03-16T20:26:32.531Z,62.21
2019-03-16T20:29:01.302Z,61.29
2019-03-16T20:31:30.180Z,62.33
2019-03-16T20:33:59.069Z,61.12
2019-03-16T20:36:27.828Z,62.68
2019-03-16T20:38:57.097Z,61.71
2019-03-16T20:41:36.155Z,64.49
2019-03-16T20:43:58.128Z,64.80
2019-03-16T20:46:26.977Z,64.15
2019-03-16T20:48:56.221Z,61.24
2019-03-16T20:51:24.945Z,63.82
2019-03-16T20:53:54.127Z,61.95
2019-03-16T20:56:22.817Z,63.93
2019-03-16T20:58:51.870Z,61.51
2019-03-16T21:01:20.741Z,63.16
2019-03-16T21:03:50.145Z,62.14
2019-03-16T21:06:19.015Z,60.81
2019-03-16T21:08:48.035Z,62.08
2019-03-16T21:11:18.908Z,61.16
2019-03-16T21:13:48.276Z,61.92
2019-03-16T21:16:19.855Z,63.87
2019-03-16T21:18:48.513Z,61.38
2019-03-16T21:21:17.345Z,62.83
2019-03-16T21:23:46.481Z,63.99
2019-03-16T21:26:15.455Z,62.48
2019-03-16T21:28:43.888Z,61.04
2019-03-16T21:31:12.710Z,63.49
2019-03-16T21:33:41.939Z,63.46
2019-03-16T21:36:11.341Z,63.80
2019-03-16T21:38:40.053Z,62.93
2019-03-16T21:41:10.227Z,63.29
2019-03-16T21:43:39.245Z,63.92
2019-03-16T21:46:08.114Z,60.82
2019-03-16T21:48:37.108Z,61.92
2019-03-16T21:51:05.955Z,63.13
2019-03-16T21:53:34.398Z,63.62
2019-03-16T21:56:02.986Z,61.84
2019-03-16T21:58:32.132Z,63.23
2019-03-16T22:01:01.887Z,61.24
2019-03-16T22:03:41.597Z,62.35
2019-03-16T22:06:01.219Z,64.14
2019-03-16T22:08:30.283Z,64.14
2019-03-16T22:10:59.079Z,61.18
2019-03-16T22:13:27.995Z,64.01
2019-03-16T22:15:57.025Z,62.38
2019-03-16T22:18:26.063Z,61.13
2019-03-16T22:20:54.585Z,61.18
2019-03-16T22:23:23.137Z,64.02
2019-03-16T22:25:51.570Z,62.66
2019-03-16T22:28:20.173Z,63.69
2019-03-16T22:30:48.686Z,64.26
2019-03-16T22:33:17.429Z,63.63
2019-03-16T22:35:45.921Z,63.09
2019-03-16T22:38:34.897Z,62.62
2019-03-16T22:41:03.401Z,64.20
2019-03-16T22:43:32.152Z,62.26
2019-03-16T22:46:00.559Z,62.10
2019-03-16T22:48:29.711Z,63.35
2019-03-16T22:50:58.208Z,64.29
2019-03-16T22:53:26.496Z,62.65
2019-03-16T22:55:54.712Z,63.25
2019-03-16T22:58:23.098Z,62.75
2019-03-16T23:00:52.969Z,62.03
2019-03-16T23:03:21.600Z,62.66
2019-03-16T23:05:49.856Z,62.16
2019-03-16T23:08:18.102Z,62.39
2019-03-16T23:10:46.289Z,63.33
2019-03-16T23:13:14.602Z,62.11
2019-03-16T23:15:43.131Z,64.11
2019-03-16T23:18:11.581Z,63.41
2019-03-16T23:20:39.755Z,62.08
2019-03-16T23:23:08.493Z,61.94
2019-03-16T23:25:36.815Z,61.89
2019-03-16T23:28:05.195Z,63.74
2019-03-16T23:30:33.329Z,63.84
2019-03-16T23:33:01.879Z,63.63
2019-03-16T23:35:30.077Z,62.77
2019-03-16T23:37:58.559Z,63.02
2019-03-16T23:40:26.893Z,63.35
2019-03-16T23:42:55.177Z,62.12
2019-03-16T23:45:23.416Z,61.05
2019-03-16T23:47:52.293Z,61.51
2019-03-16T23:50:20.587Z,61.82
2019-03-16T23:52:48.819Z,59.98
2019-03-16T23:55:17.169Z,63.05
2019-03-16T23:57:45.690Z,62.44
